Time;durP1;ratioP1;P1;durP2;ratioP2;P2;SDS_P1;SDS_P2;PMS_P1;PMS_P2;Temp;Humidity;BMP_temperature;BMP_pressure;BME280_temperature;BME280_humidity;BME280_pressure;Samples;Min_cycle;Max_cycle;Signal;HPM_P1;HPM_P2
2022/05/17 00:01:48;;;;;;;9.48;6.07;;;15.40;99.90;;;;;;5054185;28;20029;-59
2022/05/17 00:04:13;;;;;;;11.98;6.20;;;15.40;99.90;;;;;;5053383;28;20017;-59
2022/05/17 00:06:39;;;;;;;10.57;6.63;;;15.30;99.90;;;;;;5053642;28;20025;-58
2022/05/17 00:09:05;;;;;;;14.50;6.90;;;15.30;99.90;;;;;;5053321;28;20047;-59
2022/05/17 00:11:30;;;;;;;11.40;6.60;;;15.20;99.90;;;;;;5054577;28;20021;-56
2022/05/17 00:13:57;;;;;;;11.25;7.05;;;15.10;99.90;;;;;;5053069;28;20086;-58
2022/05/17 00:16:23;;;;;;;11.93;7.10;;;15.10;99.90;;;;;;5055003;28;20017;-58
2022/05/17 00:18:48;;;;;;;13.70;6.55;;;15.00;99.90;;;;;;5054374;28;20047;-57
2022/05/17 00:21:14;;;;;;;11.98;6.22;;;14.90;99.90;;;;;;5054279;28;20387;-59
2022/05/17 00:23:41;;;;;;;10.65;6.43;;;14.90;99.90;;;;;;5053340;28;20131;-58
2022/05/17 00:26:07;;;;;;;10.80;6.82;;;14.90;99.90;;;;;;5052998;28;20025;-58
2022/05/17 00:28:33;;;;;;;14.05;6.63;;;14.80;99.90;;;;;;5054167;28;20417;-58
2022/05/17 00:31:00;;;;;;;14.98;8.35;;;14.70;99.90;;;;;;5054088;28;20067;-59
2022/05/17 00:33:27;;;;;;;11.30;6.68;;;14.70;99.90;;;;;;5054224;28;20021;-59
2022/05/17 00:35:52;;;;;;;8.45;6.25;;;14.70;99.90;;;;;;5054436;28;20024;-59
2022/05/17 00:38:18;;;;;;;11.55;6.32;;;14.60;99.90;;;;;;5053983;28;20033;-59
2022/05/17 00:40:44;;;;;;;14.77;7.00;;;14.60;99.90;;;;;;5053137;28;20021;-58
2022/05/17 00:43:20;;;;;;;10.48;6.95;;;14.60;99.90;;;;;;5053867;28;20025;-58
2022/05/17 00:45:49;;;;;;;9.85;6.57;;;14.50;99.90;;;;;;5052682;28;20021;-59
2022/05/17 00:48:16;;;;;;;12.30;6.28;;;14.60;99.90;;;;;;5053812;28;20025;-58
2022/05/17 00:50:46;;;;;;;11.10;6.28;;;14.50;99.90;;;;;;5052588;28;20024;-58
2022/05/17 00:53:18;;;;;;;11.57;6.28;;;14.50;99.90;;;;;;5053907;28;20103;-59
2022/05/17 00:55:51;;;;;;;8.98;6.47;;;14.40;99.90;;;;;;5052459;28;20570;-58
2022/05/17 00:58:23;;;;;;;15.70;7.10;;;14.40;99.90;;;;;;5053350;28;20049;-59
2022/05/17 01:01:06;;;;;;;12.52;6.65;;;14.30;99.90;;;;;;5052796;28;20107;-53
2022/05/17 01:04:00;;;;;;;11.65;5.53;;;14.30;99.90;;;;;;5052823;28;20025;-53
2022/05/17 01:06:32;;;;;;;9.15;5.78;;;14.20;99.90;;;;;;5053736;28;20025;-55
2022/05/17 01:08:58;;;;;;;;;;;14.20;99.90;;;;;;5053903;28;20039;-55
2022/05/17 01:11:23;;;;;;;18.63;6.57;;;14.20;99.90;;;;;;5052183;28;19905;-57
2022/05/17 01:16:33;;;;;;;9.10;5.45;;;14.10;99.90;;;;;;5053694;28;20036;-59
2022/05/17 01:18:59;;;;;;;8.75;5.05;;;14.00;99.90;;;;;;5053248;28;20025;-58
2022/05/17 01:21:24;;;;;;;10.10;5.88;;;14.00;99.90;;;;;;5051939;28;20452;-58
2022/05/17 01:23:50;;;;;;;9.93;5.55;;;14.00;99.90;;;;;;5052080;28;20104;-58
2022/05/17 01:26:22;;;;;;;10.13;6.25;;;14.00;99.90;;;;;;5053278;28;20107;-58
2022/05/17 01:28:47;;;;;;;;;;;14.00;99.90;;;;;;5053114;28;20021;-59
2022/05/17 01:31:13;;;;;;;8.65;5.85;;;14.00;99.90;;;;;;5053045;28;19909;-57
2022/05/17 01:33:40;;;;;;;11.32;5.68;;;14.00;99.90;;;;;;5052508;28;20029;-59
2022/05/17 01:36:09;;;;;;;10.57;6.68;;;13.90;99.90;;;;;;5053048;28;20021;-55
2022/05/17 01:38:36;;;;;;;7.93;4.97;;;13.80;99.90;;;;;;5053090;28;20025;-58
2022/05/17 01:41:02;;;;;;;12.20;5.55;;;13.80;99.90;;;;;;5052097;28;20068;-58
2022/05/17 01:43:28;;;;;;;11.43;5.20;;;13.70;99.90;;;;;;5051655;28;20031;-56
2022/05/17 01:45:54;;;;;;;13.32;6.18;;;13.70;99.90;;;;;;5051706;28;20136;-58
2022/05/17 01:48:19;;;;;;;9.02;6.03;;;13.60;99.90;;;;;;5052987;28;20029;-58
2022/05/17 01:50:45;;;;;;;14.88;7.43;;;13.60;99.90;;;;;;5052807;28;20021;-56
2022/05/17 01:53:12;;;;;;;12.05;6.85;;;13.60;99.90;;;;;;5052935;28;20021;-58
2022/05/17 01:55:37;;;;;;;9.82;6.68;;;13.60;99.90;;;;;;5052878;28;20042;-58
2022/05/17 01:58:03;;;;;;;12.00;6.00;;;13.60;99.90;;;;;;5052956;28;20036;-60
2022/05/17 02:00:30;;;;;;;8.68;5.78;;;13.60;99.90;;;;;;5052826;28;20036;-56
2022/05/17 02:02:56;;;;;;;11.32;6.35;;;13.60;99.90;;;;;;5051964;28;20025;-59
2022/05/17 02:05:24;;;;;;;11.55;6.05;;;13.60;99.90;;;;;;5051745;28;20021;-54
2022/05/17 02:07:52;;;;;;;12.10;6.07;;;13.60;99.90;;;;;;5051918;28;20022;-58
2022/05/17 02:10:19;;;;;;;11.55;6.47;;;13.50;99.90;;;;;;5052004;28;20017;-58
2022/05/17 02:12:45;;;;;;;15.20;6.38;;;13.50;99.90;;;;;;5052463;28;20059;-58
2022/05/17 02:15:12;;;;;;;9.00;5.57;;;13.50;99.90;;;;;;5055927;28;20064;-56
2022/05/17 02:17:38;;;;;;;10.00;6.53;;;13.50;99.90;;;;;;5056607;28;20086;-57
2022/05/17 02:20:06;;;;;;;11.90;6.10;;;13.50;99.90;;;;;;5056969;28;20037;-57
2022/05/17 02:22:32;;;;;;;10.35;6.55;;;13.50;99.90;;;;;;5056514;28;20036;-58
2022/05/17 02:24:57;;;;;;;13.60;7.28;;;13.50;99.90;;;;;;5055362;28;20021;-58
2022/05/17 02:27:23;;;;;;;12.40;6.55;;;13.40;99.90;;;;;;5056382;28;20059;-58
2022/05/17 02:29:48;;;;;;;10.05;6.43;;;13.40;99.90;;;;;;5056386;28;20032;-58
2022/05/17 02:32:14;;;;;;;16.65;6.93;;;13.40;99.90;;;;;;5055157;28;20112;-58
2022/05/17 02:34:41;;;;;;;13.85;6.60;;;13.40;99.90;;;;;;5056373;28;20025;-56
2022/05/17 02:37:06;;;;;;;9.43;5.65;;;13.40;99.90;;;;;;5056436;28;20108;-58
2022/05/17 02:39:32;;;;;;;12.02;6.25;;;13.40;99.90;;;;;;5055094;28;20128;-58
2022/05/17 02:41:59;;;;;;;10.73;6.05;;;13.30;99.90;;;;;;5055200;28;20025;-57
2022/05/17 02:44:25;;;;;;;10.57;5.78;;;13.30;99.90;;;;;;5054923;28;20073;-59
2022/05/17 02:46:51;;;;;;;8.57;5.80;;;13.20;99.90;;;;;;5056182;28;20025;-57
2022/05/17 02:49:16;;;;;;;9.75;5.35;;;13.20;99.90;;;;;;5056384;28;20021;-58
2022/05/17 02:51:42;;;;;;;7.97;4.60;;;13.20;99.90;;;;;;5054802;28;20021;-58
2022/05/17 02:54:10;;;;;;;7.60;4.82;;;13.20;99.90;;;;;;5056189;28;20471;-57
2022/05/17 02:56:37;;;;;;;14.82;6.10;;;13.10;99.90;;;;;;5055105;28;20049;-58
2022/05/17 02:59:03;;;;;;;8.15;5.53;;;13.10;99.90;;;;;;5056112;28;20388;-58
2022/05/17 03:01:29;;;;;;;12.32;6.93;;;13.10;99.90;;;;;;5056216;28;20017;-59
2022/05/17 03:03:54;;;;;;;11.70;6.47;;;13.10;99.90;;;;;;5055897;28;20021;-59
2022/05/17 03:06:20;;;;;;;7.63;5.78;;;13.00;99.90;;;;;;5054549;28;20032;-59
2022/05/17 03:08:46;;;;;;;8.55;5.80;;;13.00;99.90;;;;;;5054757;28;20396;-58
2022/05/17 03:11:12;;;;;;;16.45;6.10;;;13.10;99.90;;;;;;5054365;28;20017;-58
2022/05/17 03:13:37;;;;;;;10.32;5.93;;;13.10;99.90;;;;;;5055609;28;20040;-58
2022/05/17 03:16:04;;;;;;;22.33;6.53;;;13.00;99.90;;;;;;5054729;28;20086;-58
2022/05/17 03:18:29;;;;;;;7.63;5.75;;;13.00;99.90;;;;;;5054669;28;20121;-58
2022/05/17 03:20:55;;;;;;;9.70;6.75;;;13.10;99.90;;;;;;5054197;28;20116;-59
2022/05/17 03:23:21;;;;;;;17.98;7.45;;;13.10;99.90;;;;;;5054938;28;20033;-58
2022/05/17 03:25:46;;;;;;;9.35;6.93;;;13.10;99.90;;;;;;5053851;28;20021;-59
2022/05/17 03:28:13;;;;;;;19.58;7.93;;;13.20;99.90;;;;;;5054134;28;20021;-58
2022/05/17 03:30:42;;;;;;;11.73;8.27;;;13.20;99.90;;;;;;5054567;28;20021;-58
2022/05/17 03:33:08;;;;;;;14.30;8.18;;;13.20;99.90;;;;;;5053994;28;20110;-59
2022/05/17 03:35:34;;;;;;;13.10;9.23;;;13.30;99.90;;;;;;5055206;28;20029;-59
2022/05/17 03:38:00;;;;;;;11.93;7.80;;;13.30;99.90;;;;;;5053925;28;20031;-59
2022/05/17 03:40:26;;;;;;;10.95;7.00;;;13.30;99.90;;;;;;5053846;28;20029;-57
2022/05/17 03:42:51;;;;;;;10.00;7.68;;;13.40;99.90;;;;;;5054470;28;20060;-56
2022/05/17 03:45:17;;;;;;;12.27;7.90;;;13.40;99.90;;;;;;5055140;28;20106;-57
2022/05/17 03:47:43;;;;;;;10.30;7.25;;;13.40;99.90;;;;;;5055119;28;20029;-54
2022/05/17 03:50:10;;;;;;;13.23;7.35;;;13.40;99.90;;;;;;5054044;28;20021;-58
2022/05/17 03:52:36;;;;;;;12.50;6.90;;;13.40;99.90;;;;;;5055255;28;20029;-55
2022/05/17 03:55:05;;;;;;;24.77;8.10;;;13.50;99.90;;;;;;5053938;28;20056;-55
2022/05/17 03:57:31;;;;;;;11.40;6.78;;;13.40;99.90;;;;;;5054873;28;20029;-57
2022/05/17 03:59:57;;;;;;;21.88;8.30;;;13.50;99.90;;;;;;5053899;28;20028;-56
2022/05/17 04:02:23;;;;;;;15.43;8.52;;;13.50;99.90;;;;;;5053683;28;20063;-58
2022/05/17 04:04:56;;;;;;;14.15;8.20;;;13.50;99.90;;;;;;5054668;28;20021;-57
2022/05/17 04:07:22;;;;;;;14.30;7.68;;;13.50;99.90;;;;;;5054915;28;20048;-57
2022/05/17 04:09:48;;;;;;;10.80;7.13;;;13.60;99.90;;;;;;5054538;28;20032;-54
2022/05/17 04:12:14;;;;;;;13.02;7.22;;;13.60;99.90;;;;;;5054508;28;20025;-57
2022/05/17 04:14:40;;;;;;;11.82;7.63;;;13.70;99.90;;;;;;5054866;28;20086;-57
2022/05/17 04:17:06;;;;;;;12.18;7.55;;;13.70;99.90;;;;;;5054759;28;20028;-57
2022/05/17 04:19:32;;;;;;;14.98;7.18;;;13.80;99.90;;;;;;5054306;28;20021;-55
2022/05/17 04:22:00;;;;;;;14.88;7.00;;;13.90;99.90;;;;;;5053096;28;20060;-55
2022/05/17 04:24:26;;;;;;;13.73;7.25;;;14.00;99.90;;;;;;5053875;28;20021;-57
2022/05/17 04:26:53;;;;;;;10.55;6.60;;;14.00;99.90;;;;;;5054266;28;20021;-57
2022/05/17 04:29:19;;;;;;;11.68;8.00;;;14.10;99.90;;;;;;5052923;28;20510;-58
2022/05/17 04:31:46;;;;;;;10.93;7.00;;;14.10;99.90;;;;;;5053303;28;20021;-58
2022/05/17 04:34:12;;;;;;;12.18;7.75;;;14.20;99.90;;;;;;5054276;28;20066;-56
2022/05/17 04:36:38;;;;;;;11.80;7.43;;;14.20;99.90;;;;;;5052776;28;20085;-58
2022/05/17 04:39:04;;;;;;;11.63;8.10;;;14.20;99.90;;;;;;5052989;28;20075;-53
2022/05/17 04:41:30;;;;;;;13.35;7.63;;;14.30;99.90;;;;;;5054198;28;20056;-56
2022/05/17 04:43:55;;;;;;;10.73;7.18;;;14.30;99.90;;;;;;5052868;28;20052;-57
2022/05/17 04:46:21;;;;;;;13.38;7.80;;;14.40;99.90;;;;;;5053478;28;20106;-58
2022/05/17 04:48:47;;;;;;;12.65;7.72;;;14.50;99.90;;;;;;5053667;28;20115;-56
2022/05/17 04:51:14;;;;;;;10.32;6.97;;;14.50;99.90;;;;;;5053960;28;20128;-59
2022/05/17 04:53:41;;;;;;;12.70;7.25;;;14.60;99.90;;;;;;5054044;28;20025;-56
2022/05/17 04:56:08;;;;;;;11.60;6.57;;;14.80;99.90;;;;;;5052777;28;20396;-55
2022/05/17 04:58:34;;;;;;;12.38;7.70;;;14.90;99.90;;;;;;5053877;28;20036;-59
2022/05/17 05:01:00;;;;;;;9.90;7.07;;;15.00;99.90;;;;;;5053906;28;20029;-59
2022/05/17 05:03:26;;;;;;;12.60;7.30;;;15.10;99.90;;;;;;5053867;28;20024;-56
2022/05/17 05:05:52;;;;;;;9.30;6.55;;;15.10;99.90;;;;;;5053844;28;20052;-59
2022/05/17 05:08:18;;;;;;;9.65;7.00;;;15.30;99.90;;;;;;5054085;28;20049;-58
2022/05/17 05:10:45;;;;;;;9.20;7.22;;;15.40;99.90;;;;;;5052327;28;20111;-58
2022/05/17 05:13:19;;;;;;;11.98;7.57;;;15.50;99.90;;;;;;5052433;28;20029;-58
2022/05/17 05:15:45;;;;;;;9.45;7.10;;;15.60;99.90;;;;;;5052372;28;20048;-57
2022/05/17 05:18:11;;;;;;;25.33;7.82;;;15.60;99.90;;;;;;5052411;28;20025;-59
2022/05/17 05:20:39;;;;;;;35.63;8.40;;;15.50;99.90;;;;;;5053778;28;20025;-59
2022/05/17 05:23:05;;;;;;;49.95;9.30;;;15.40;99.90;;;;;;5053044;28;20119;-59
2022/05/17 05:25:30;;;;;;;41.70;9.05;;;15.20;99.90;;;;;;5053068;28;20021;-59
2022/05/17 05:27:56;;;;;;;29.40;8.70;;;15.20;99.90;;;;;;5053496;28;20021;-59
2022/05/17 05:30:22;;;;;;;40.53;8.95;;;15.20;99.90;;;;;;5052493;28;20063;-53
2022/05/17 05:32:48;;;;;;;20.15;8.50;;;15.20;99.90;;;;;;5053715;28;20380;-58
2022/05/17 05:35:15;;;;;;;13.52;8.00;;;15.30;99.90;;;;;;5052216;28;20227;-57
2022/05/17 05:37:41;;;;;;;16.35;8.07;;;15.60;99.90;;;;;;5052918;28;20038;-57
2022/05/17 05:40:09;;;;;;;11.45;7.25;;;15.90;99.90;;;;;;5052259;28;20033;-56
2022/05/17 05:42:35;;;;;;;37.78;8.40;;;16.10;99.90;;;;;;5052898;28;20035;-55
2022/05/17 05:45:01;;;;;;;14.35;7.57;;;16.00;99.90;;;;;;5053178;28;20021;-57
2022/05/17 05:47:27;;;;;;;12.10;8.30;;;15.90;99.90;;;;;;5051492;28;20024;-55
2022/05/17 05:49:53;;;;;;;12.82;8.55;;;16.00;99.90;;;;;;5053095;28;20036;-57
2022/05/17 05:52:18;;;;;;;81.43;11.32;;;16.00;99.90;;;;;;5052705;28;20127;-56
2022/05/17 05:54:44;;;;;;;20.35;8.80;;;16.00;99.90;;;;;;5051897;28;20029;-57
2022/05/17 05:57:10;;;;;;;15.13;7.88;;;16.20;99.90;;;;;;5051896;28;20467;-58
2022/05/17 05:59:36;;;;;;;12.13;8.50;;;16.30;99.90;;;;;;5052284;28;20025;-57
2022/05/17 06:02:03;;;;;;;11.07;7.13;;;16.40;99.90;;;;;;5052284;28;20029;-52
2022/05/17 06:04:29;;;;;;;13.82;8.48;;;16.70;99.90;;;;;;5052059;28;20021;-56
2022/05/17 06:06:56;;;;;;;15.65;9.23;;;17.10;99.90;;;;;;5051814;28;20021;-54
2022/05/17 06:09:22;;;;;;;13.88;8.55;;;17.20;99.90;;;;;;5051630;28;20021;-53
2022/05/17 06:11:48;;;;;;;12.43;7.90;;;17.20;99.90;;;;;;5053199;28;20021;-52
2022/05/17 06:14:13;;;;;;;13.52;8.93;;;17.30;99.90;;;;;;5052941;28;20040;-55
2022/05/17 06:16:39;;;;;;;11.82;7.30;;;17.50;99.90;;;;;;5052952;28;20361;-56
2022/05/17 06:19:04;;;;;;;23.75;8.82;;;17.70;99.90;;;;;;5051905;28;20155;-56
2022/05/17 06:21:30;;;;;;;14.82;9.02;;;17.90;99.90;;;;;;5052824;28;20027;-52
2022/05/17 06:23:55;;;;;;;16.67;8.52;;;18.00;99.90;;;;;;5053407;28;20021;-57
2022/05/17 06:26:21;;;;;;;13.70;8.13;;;18.30;99.90;;;;;;5053102;28;20029;-57
2022/05/17 06:28:47;;;;;;;11.77;9.30;;;18.40;99.90;;;;;;5053078;28;20021;-58
2022/05/17 06:31:12;;;;;;;14.80;9.18;;;18.60;99.90;;;;;;5052789;28;20064;-57
2022/05/17 06:33:39;;;;;;;18.85;10.25;;;19.00;99.90;;;;;;5051889;28;20121;-56
2022/05/17 06:36:05;;;;;;;12.05;8.27;;;19.20;99.90;;;;;;5051481;28;20060;-57
2022/05/17 06:38:31;;;;;;;13.70;9.65;;;19.40;99.90;;;;;;5052830;28;20029;-58
2022/05/17 06:40:57;;;;;;;16.13;10.32;;;19.40;99.90;;;;;;5051585;28;20029;-53
2022/05/17 06:43:23;;;;;;;11.77;7.45;;;19.60;99.90;;;;;;5052767;28;20025;-53
2022/05/17 06:45:49;;;;;;;12.30;9.75;;;19.90;99.90;;;;;;5051482;28;20052;-56
2022/05/17 06:48:15;;;;;;;14.32;9.25;;;20.20;99.90;;;;;;5052954;28;20021;-53
2022/05/17 06:50:41;;;;;;;15.13;9.90;;;20.30;99.90;;;;;;5052667;28;20047;-53
2022/05/17 06:53:08;;;;;;;15.27;10.23;;;20.50;99.90;;;;;;5051683;28;20025;-53
2022/05/17 06:55:34;;;;;;;12.57;9.32;;;20.80;99.90;;;;;;5052588;28;20028;-51
2022/05/17 06:58:02;;;;;;;12.57;8.65;;;21.30;99.90;;;;;;5052556;28;20021;-56
2022/05/17 07:00:28;;;;;;;7.53;6.38;;;22.20;99.90;;;;;;5054702;28;20032;-56
2022/05/17 07:02:54;;;;;;;11.85;7.75;;;23.60;99.90;;;;;;5056072;28;20033;-56
2022/05/17 07:05:19;;;;;;;13.07;8.25;;;24.70;99.90;;;;;;5056409;28;20021;-53
2022/05/17 07:07:45;;;;;;;15.50;10.55;;;25.90;99.90;;;;;;5054844;28;20024;-52
2022/05/17 07:13:09;;;;;;;13.70;9.45;;;26.10;99.90;;;;;;5056560;28;20086;-54
2022/05/17 07:15:39;;;;;;;12.13;8.35;;;26.50;99.90;;;;;;5056663;28;20047;-55
2022/05/17 07:18:06;;;;;;;13.95;9.00;;;27.60;99.90;;;;;;5055810;28;20040;-53
2022/05/17 07:20:32;;;;;;;9.73;6.50;;;28.10;99.90;;;;;;5055621;28;20407;-55
2022/05/17 07:22:57;;;;;;;9.95;7.43;;;27.80;99.90;;;;;;5054525;28;20106;-54
2022/05/17 07:25:23;;;;;;;8.23;6.35;;;28.70;99.90;;;;;;5055695;28;20049;-57
2022/05/17 07:27:49;;;;;;;7.88;6.82;;;29.70;99.90;;;;;;5054418;28;20028;-55
2022/05/17 07:30:15;;;;;;;11.93;5.68;;;30.60;99.90;;;;;;5055478;28;20021;-57
2022/05/17 07:32:41;;;;;;;6.50;5.15;;;31.30;99.90;;;;;;5054437;28;20029;-55
2022/05/17 07:35:07;;;;;;;7.75;6.55;;;31.90;99.90;;;;;;5054299;28;20111;-53
2022/05/17 07:37:34;;;;;;;8.07;6.88;;;32.10;99.90;;;;;;5055630;28;20079;-55
2022/05/17 07:40:00;;;;;;;9.68;6.10;;;32.60;98.60;;;;;;5054192;28;20033;-54
2022/05/17 07:42:26;;;;;;;9.65;7.07;;;33.60;96.60;;;;;;5054047;28;20040;-52
2022/05/17 07:44:52;;;;;;;10.20;7.10;;;33.60;95.50;;;;;;5054668;28;20028;-57
2022/05/17 07:47:18;;;;;;;10.68;5.50;;;33.70;94.60;;;;;;5054056;28;20475;-56
2022/05/17 07:49:43;;;;;;;7.18;6.47;;;34.10;94.00;;;;;;5055267;28;20076;-54
2022/05/17 07:52:10;;;;;;;10.45;8.40;;;34.40;91.60;;;;;;5055247;28;20021;-56
2022/05/17 07:54:37;;;;;;;9.32;7.10;;;34.30;92.50;;;;;;5053884;28;20064;-50
2022/05/17 07:57:04;;;;;;;16.10;8.07;;;34.90;90.90;;;;;;5054948;28;20025;-53
2022/05/17 08:00:00;;;;;;;7.97;5.18;;;34.70;89.00;;;;;;5053919;28;20078;-53
2022/05/17 08:02:25;;;;;;;9.95;6.72;;;35.50;88.60;;;;;;5053759;28;20029;-53
2022/05/17 08:04:51;;;;;;;10.13;6.63;;;35.80;85.40;;;;;;5053734;28;20070;-51
2022/05/17 08:07:16;;;;;;;10.80;7.70;;;36.20;83.50;;;;;;5055014;28;20036;-53
2022/05/17 08:09:42;;;;;;;13.27;8.32;;;36.10;83.00;;;;;;5053523;28;20036;-54
2022/05/17 08:12:10;;;;;;;12.15;5.80;;;35.90;80.90;;;;;;5054315;28;20175;-55
2022/05/17 08:14:37;;;;;;;10.00;7.28;;;35.90;81.50;;;;;;5054759;28;20025;-55
2022/05/17 08:17:04;;;;;;;13.35;7.07;;;36.10;77.50;;;;;;5054440;28;20036;-53
2022/05/17 08:19:30;;;;;;;11.32;8.25;;;36.90;76.60;;;;;;5054724;28;20028;-52
2022/05/17 08:21:56;;;;;;;9.10;6.07;;;36.70;76.30;;;;;;5053911;28;20021;-55
2022/05/17 08:24:22;;;;;;;12.38;7.00;;;36.50;76.90;;;;;;5054143;28;20114;-55
2022/05/17 08:29:32;;;;;;;6.60;5.25;;;35.10;81.30;;;;;;5054985;28;20083;-55
2022/05/17 08:34:42;;;;;;;10.35;6.30;;;35.60;75.70;;;;;;5054959;28;20501;-51
2022/05/17 08:37:08;;;;;;;11.55;6.32;;;35.70;77.20;;;;;;5054263;28;20021;-51
2022/05/17 08:39:34;;;;;;;9.35;5.05;;;35.80;72.60;;;;;;5054199;28;20044;-52
2022/05/17 08:42:08;;;;;;;8.98;5.30;;;36.30;73.60;;;;;;5053299;28;20059;-49
2022/05/17 08:44:49;;;;;;;11.55;6.15;;;36.80;73.40;;;;;;5053062;28;20090;-52
2022/05/17 08:47:26;;;;;;;12.68;5.72;;;36.60;70.70;;;;;;5052980;28;20024;-50
2022/05/17 08:49:52;;;;;;;9.55;4.93;;;35.30;72.10;;;;;;5053615;28;20132;-49
2022/05/17 08:52:21;;;;;;;10.30;4.55;;;34.80;72.10;;;;;;5053057;28;20491;-48
2022/05/17 08:55:29;;;;;;;14.32;5.05;;;35.50;73.10;;;;;;5052818;28;20048;-51
2022/05/17 08:58:01;;;;;;;4.95;3.53;;;36.40;67.50;;;;;;5052200;28;20059;-55
2022/05/17 09:00:42;;;;;;;8.30;3.40;;;35.50;69.50;;;;;;5052721;28;20048;-50
2022/05/17 09:03:39;;;;;;;9.02;3.78;;;34.20;69.50;;;;;;5053737;28;20056;-56
2022/05/17 09:09:41;;;;;;;4.88;2.85;;;34.70;72.30;;;;;;5053984;28;20063;-54
2022/05/17 09:12:21;;;;;;;4.95;2.58;;;35.00;69.80;;;;;;5052538;28;20031;-54
2022/05/17 09:14:49;;;;;;;5.50;2.53;;;35.20;69.30;;;;;;5053744;28;20068;-54
2022/05/17 09:17:21;;;;;;;5.72;2.35;;;35.00;70.80;;;;;;5053804;28;20031;-57
2022/05/17 09:19:51;;;;;;;4.35;2.38;;;35.40;68.70;;;;;;5052545;28;20075;-53
2022/05/17 09:22:17;;;;;;;;;;;36.20;69.00;;;;;;5052111;28;20033;-56
2022/05/17 09:24:54;;;;;;;6.10;2.97;;;36.70;68.10;;;;;;5053497;28;19973;-58
2022/05/17 09:27:30;;;;;;;6.90;3.65;;;37.80;66.30;;;;;;5054202;28;20021;-49
2022/05/17 09:30:05;;;;;;;5.35;3.58;;;38.00;65.90;;;;;;5052142;28;20025;-53
2022/05/17 09:32:33;;;;;;;6.85;3.17;;;38.30;64.60;;;;;;5053433;28;20040;-55
2022/05/17 09:35:13;;;;;;;8.98;3.45;;;36.90;64.40;;;;;;5053711;28;20021;-54
2022/05/17 09:37:42;;;;;;;4.30;2.25;;;37.60;64.50;;;;;;5052919;28;20039;-56
2022/05/17 09:40:11;;;;;;;5.03;2.80;;;38.40;63.70;;;;;;5053291;28;20021;-57
2022/05/17 09:43:02;;;;;;;4.85;3.00;;;37.90;64.60;;;;;;5052219;28;20025;-53
2022/05/17 09:45:49;;;;;;;7.40;3.53;;;37.80;63.80;;;;;;5053824;28;20025;-50
2022/05/17 09:52:32;;;;;;;7.53;3.50;;;38.10;65.60;;;;;;5052087;28;20025;-53
2022/05/17 09:54:34;;;;;;;4.13;2.92;;;38.30;65.30;;;;;;5053102;28;20024;-55
2022/05/17 09:57:21;;;;;;;4.38;2.80;;;39.10;62.70;;;;;;5051939;28;20067;-56
2022/05/17 09:59:50;;;;;;;6.70;4.32;;;39.40;60.80;;;;;;5052179;28;20056;-52
2022/05/17 10:02:32;;;;;;;5.82;2.45;;;39.00;62.10;;;;;;5053335;28;20091;-53
2022/05/17 10:05:18;;;;;;;5.38;2.95;;;39.40;60.60;;;;;;5052214;28;20013;-55
2022/05/17 10:08:08;;;;;;;6.03;2.00;;;38.70;59.80;;;;;;5053186;28;20025;-52
2022/05/17 10:10:43;;;;;;;3.33;2.30;;;38.00;61.00;;;;;;5052453;28;20057;-52
2022/05/17 10:13:19;;;;;;;3.25;2.05;;;38.20;61.50;;;;;;5052225;28;20022;-56
2022/05/17 10:15:49;;;;;;;5.80;2.65;;;38.40;60.90;;;;;;5052951;28;20041;-57
2022/05/17 10:18:35;;;;;;;4.00;2.45;;;38.90;61.50;;;;;;5051780;28;20025;-54
2022/05/17 10:21:32;;;;;;;3.80;2.40;;;38.80;60.10;;;;;;5052905;28;20487;-57
2022/05/17 10:24:19;;;;;;;4.20;1.90;;;38.20;60.50;;;;;;5051935;28;20028;-53
2022/05/17 10:27:00;;;;;;;2.90;1.55;;;37.20;60.90;;;;;;5053199;28;20032;-55
2022/05/17 10:29:40;;;;;;;4.60;1.90;;;37.00;61.40;;;;;;5052504;28;20109;-54
2022/05/17 10:32:54;;;;;;;2.33;1.67;;;36.30;60.20;;;;;;5052886;28;20049;-55
2022/05/17 10:35:44;;;;;;;3.20;1.35;;;35.60;62.50;;;;;;5056533;28;20075;-50
2022/05/17 10:38:11;;;;;;;2.85;1.38;;;34.90;63.30;;;;;;5055467;28;20021;-56
2022/05/17 10:40:43;;;;;;;3.85;1.58;;;34.40;63.90;;;;;;5055309;28;20029;-52
2022/05/17 10:43:15;;;;;;;2.58;1.20;;;33.90;65.20;;;;;;5056360;28;20021;-52
2022/05/17 10:45:44;;;;;;;2.28;1.55;;;33.40;63.70;;;;;;5056531;28;20021;-54
2022/05/17 10:48:38;;;;;;;4.55;1.40;;;33.10;64.60;;;;;;5056271;28;20112;-52
2022/05/17 10:51:37;;;;;;;4.15;1.58;;;32.90;65.90;;;;;;5055213;28;20057;-57
2022/05/17 10:54:27;;;;;;;4.82;1.48;;;32.90;65.70;;;;;;5022460;28;20036;-55
2022/05/17 10:57:03;;;;;;;3.80;1.52;;;32.80;67.70;;;;;;5056672;28;20017;-56
2022/05/17 10:59:31;;;;;;;3.55;1.40;;;32.70;66.30;;;;;;5056192;28;20017;-55
2022/05/17 11:02:15;;;;;;;3.17;1.20;;;32.70;68.00;;;;;;5054862;28;20514;-51
2022/05/17 11:05:29;;;;;;;4.05;1.80;;;32.60;67.00;;;;;;5056657;28;20021;-55
2022/05/17 11:08:32;;;;;;;5.10;1.60;;;32.50;66.40;;;;;;5002927;28;20459;-53
2022/05/17 11:11:30;;;;;;;7.63;2.35;;;32.30;67.30;;;;;;5054743;28;20021;-50
2022/05/17 11:14:12;;;;;;;4.00;1.65;;;32.10;67.80;;;;;;5031742;28;20045;-58
2022/05/17 11:16:49;;;;;;;12.75;2.00;;;32.20;67.80;;;;;;5054590;28;20039;-62
2022/05/17 11:19:32;;;;;;;5.90;1.60;;;32.10;68.50;;;;;;5056110;28;20029;-59
2022/05/17 11:22:05;;;;;;;5.13;2.20;;;32.00;68.20;;;;;;5055087;28;20017;-59
2022/05/17 11:24:36;;;;;;;2.30;1.30;;;32.00;67.30;;;;;;5054559;28;20032;-59
2022/05/17 11:27:26;;;;;;;13.98;3.42;;;31.80;66.10;;;;;;5055693;28;20464;-59
2022/05/17 11:30:10;;;;;;;3.03;1.52;;;31.50;70.10;;;;;;5054252;28;20555;-59
2022/05/17 11:32:40;;;;;;;4.45;1.30;;;31.40;70.90;;;;;;5054352;28;20025;-59
2022/05/17 11:35:51;;;;;;;6.38;1.40;;;31.10;68.50;;;;;;5054415;28;20025;-59
2022/05/17 11:38:20;;;;;;;;;;;31.00;68.80;;;;;;4997761;28;20137;-59
2022/05/17 11:40:52;;;;;;;3.45;1.63;;;31.00;71.40;;;;;;5050723;28;19912;-59
2022/05/17 11:43:45;;;;;;;3.60;1.33;;;31.00;70.60;;;;;;5055625;28;20061;-57
2022/05/17 11:46:28;;;;;;;1.70;1.30;;;31.00;70.60;;;;;;5054584;28;20045;-57
2022/05/17 11:48:57;;;;;;;6.07;1.85;;;30.90;70.10;;;;;;5054077;28;20066;-57
2022/05/17 11:51:24;;;;;;;5.13;1.23;;;30.90;71.10;;;;;;5054014;28;20021;-58
2022/05/17 11:53:53;;;;;;;4.47;2.10;;;30.90;72.90;;;;;;5054477;28;20025;-57
2022/05/17 11:56:33;;;;;;;3.53;1.50;;;30.80;72.00;;;;;;5053931;28;20127;-58
2022/05/17 11:59:01;;;;;;;;;;;30.60;72.00;;;;;;5055160;28;20025;-58
2022/05/17 12:01:26;;;;;;;3.38;1.50;;;30.60;69.70;;;;;;5055235;28;19927;-61
2022/05/17 12:04:00;;;;;;;5.13;2.13;;;30.40;70.80;;;;;;5054890;28;20475;-60
2022/05/17 12:06:56;;;;;;;3.97;1.58;;;30.40;70.70;;;;;;5054307;28;20021;-59
2022/05/17 12:09:29;;;;;;;2.88;1.40;;;30.30;71.80;;;;;;5053685;28;20021;-58
2022/05/17 12:12:17;;;;;;;4.80;2.17;;;30.60;70.60;;;;;;5053675;28;20179;-58
2022/05/17 12:14:51;;;;;;;4.05;1.50;;;30.60;71.90;;;;;;5053652;28;20040;-58
2022/05/17 12:17:25;;;;;;;4.07;1.40;;;30.60;67.90;;;;;;5054738;28;20021;-58
2022/05/17 12:20:13;;;;;;;6.85;1.63;;;29.90;70.00;;;;;;5054934;28;20027;-54
2022/05/17 12:23:05;;;;;;;3.65;1.33;;;29.70;71.20;;;;;;5053965;28;20060;-51
2022/05/17 12:25:55;;;;;;;3.42;1.42;;;29.60;70.60;;;;;;5054978;28;20024;-51
2022/05/17 12:28:29;;;;;;;5.05;1.60;;;29.40;71.60;;;;;;5053359;28;20028;-57
2022/05/17 12:31:02;;;;;;;3.38;1.27;;;29.20;71.80;;;;;;5054128;28;20380;-51
2022/05/17 12:33:50;;;;;;;5.68;2.30;;;29.00;72.30;;;;;;5053606;28;20029;-54
2022/05/17 12:36:20;;;;;;;2.83;1.50;;;29.10;75.90;;;;;;5054424;28;20057;-54
2022/05/17 12:44:44;;;;;;;2.85;1.17;;;28.40;75.90;;;;;;5054499;28;20036;-55
2022/05/17 12:47:15;;;;;;;3.75;1.58;;;28.40;75.20;;;;;;5053537;28;20032;-58
2022/05/17 12:49:42;;;;;;;4.40;1.50;;;28.50;77.30;;;;;;5053187;28;20392;-56
2022/05/17 12:52:18;;;;;;;3.42;1.40;;;28.50;78.10;;;;;;5053712;28;20028;-57
2022/05/17 12:54:49;;;;;;;4.45;1.42;;;28.50;79.50;;;;;;5052922;28;20049;-54
2022/05/17 12:57:21;;;;;;;4.50;1.88;;;28.20;76.30;;;;;;5054157;28;20025;-55
2022/05/17 12:59:47;;;;;;;5.95;1.80;;;28.20;77.80;;;;;;5053896;28;20025;-53
2022/05/17 13:02:24;;;;;;;5.97;1.80;;;27.50;77.50;;;;;;5052746;28;20029;-58
2022/05/17 13:04:50;;;;;;;3.15;2.00;;;27.20;79.30;;;;;;5053752;28;20017;-55
2022/05/17 13:07:20;;;;;;;4.70;1.70;;;27.10;81.00;;;;;;5054067;28;20391;-56
2022/05/17 13:09:55;;;;;;;4.27;1.50;;;26.70;84.80;;;;;;5053073;28;20040;-56
2022/05/17 13:12:23;;;;;;;6.13;2.10;;;27.10;84.60;;;;;;5054095;28;20032;-58
2022/05/17 13:14:50;;;;;;;5.70;2.30;;;27.00;83.50;;;;;;5053733;28;20071;-59
2022/05/17 13:17:28;;;;;;;5.10;2.40;;;26.80;84.10;;;;;;5053237;28;20032;-55
2022/05/17 13:19:58;;;;;;;9.32;2.25;;;26.90;84.30;;;;;;5053793;28;20028;-59
2022/05/17 13:22:25;;;;;;;4.77;2.00;;;26.80;85.10;;;;;;5053532;28;20025;-58
2022/05/17 13:24:59;;;;;;;5.40;2.13;;;27.20;84.80;;;;;;5052478;28;20056;-59